Latest Weather Observations for Hay Point

IDQ60801

Issued at 6:42 am EST Monday 22 April 2024 (issued every 10 minutes, with the page automatically refreshed every 10 minutes)

About weather observations | Map of weather stations | Latest weather observations for QLD | Other Formats
Station Details ID: 033317 Name: HAY POINT Lat: -21.29 Lon: 149.30 Height: 7.0 m
Data from the previous 72 hours. | See also: Recent months for locations in Queensland
Date/Time
EST
Temp
°C
App
Temp
°C
Dew
Point
°C
Rel
Hum
%
Delta-T
°C
Wind Press
QNH
hPa
Press
MSL
hPa
Rain since
9am
mm
Dir  Spd
km/h
Gust
km/h
Spd
kts
Gust
kts
22/06:30am - - - - - S 32 41 17 22 - - -
22/06:00am - - - - - S 35 43 19 23 - - -
22/05:30am - - - - - S 35 43 19 23 - - -
22/05:00am - - - - - S 35 44 19 24 - - -
22/04:30am - - - - - S 35 43 19 23 - - -
22/04:00am - - - - - S 33 41 18 22 - - -
22/03:30am - - - - - S 30 37 16 20 - - -
22/03:00am - - - - - S 28 37 15 20 - - -
22/02:30am - - - - - SSW 20 28 11 15 - - -
22/02:00am - - - - - S 28 37 15 20 - - -
22/01:30am - - - - - S 26 32 14 17 - - -
22/01:00am - - - - - S 19 26 10 14 - - -
22/12:30am - - - - - S 20 28 11 15 - - -
22/12:00am - - - - - S 28 39 15 21 - - -
 
Date/Time
EST
Temp
°C
App
Temp
°C
Dew
Point
°C
Rel
Hum
%
Delta-T
°C
Wind Press
QNH
hPa
Press
MSL
hPa
Rain since
9am
mm
Dir  Spd
km/h
Gust
km/h
Spd
kts
Gust
kts
21/11:30pm - - - - - S 30 37 16 20 - - -
21/11:00pm - - - - - S 28 33 15 18 - - -
21/10:30pm - - - - - S 28 33 15 18 - - -
21/10:00pm - - - - - S 28 35 15 19 - - -
21/09:30pm - - - - - S 28 35 15 19 - - -
21/09:00pm - - - - - S 26 35 14 19 - - -
21/08:30pm - - - - - S 28 37 15 20 - - -
21/08:00pm - - - - - SSW 17 22 9 12 - - -
21/07:30pm - - - - - S 22 28 12 15 - - -
21/07:00pm - - - - - S 19 26 10 14 - - -
21/06:30pm - - - - - S 19 26 10 14 - - -
21/06:00pm - - - - - SSE 28 33 15 18 - - -
21/05:30pm - - - - - SSE 30 35 16 19 - - -
21/05:00pm - - - - - SSE 24 28 13 15 - - -
21/04:30pm - - - - - SSE 24 28 13 15 - - -
21/04:00pm - - - - - SE 24 32 13 17 - - -
21/03:30pm - - - - - SE 28 35 15 19 - - -
21/03:00pm - - - - - SSE 35 39 19 21 - - -
21/02:30pm - - - - - SSE 33 37 18 20 - - -
21/02:00pm - - - - - SSE 32 35 17 19 - - -
21/01:30pm - - - - - SSE 28 37 15 20 - - -
21/01:00pm - - - - - SSE 30 39 16 21 - - -
21/12:30pm - - - - - SSE 30 35 16 19 - - -
21/12:00pm - - - - - SSE 26 33 14 18 - - -
21/11:30am - - - - - S 28 35 15 19 - - -
21/11:00am - - - - - S 30 39 16 21 - - -
21/10:30am - - - - - S 32 44 17 24 - - -
21/10:00am - - - - - SSE 30 41 16 22 - - -
21/09:30am - - - - - S 32 39 17 21 - - -
21/09:00am - - - - - S 32 41 17 22 - - -
21/08:30am - - - - - SSE 33 43 18 23 - - -
21/08:00am - - - - - SSE 32 39 17 21 - - -
21/07:30am - - - - - S 32 41 17 22 - - -
21/07:00am - - - - - S 35 46 19 25 - - -
21/06:30am - - - - - S 39 52 21 28 - - -
21/06:00am - - - - - S 32 41 17 22 - - -
21/05:30am - - - - - SSE 33 44 18 24 - - -
21/05:00am - - - - - S 32 41 17 22 - - -
21/04:30am - - - - - SSE 33 43 18 23 - - -
21/04:00am - - - - - S 28 35 15 19 - - -
21/03:30am - - - - - S 26 32 14 17 - - -
21/03:00am - - - - - S 30 41 16 22 - - -
21/02:30am - - - - - SSW 30 33 16 18 - - -
21/02:00am - - - - - S 32 39 17 21 - - -
21/01:30am - - - - - SSW 35 43 19 23 - - -
21/01:00am - - - - - S 33 43 18 23 - - -
21/12:30am - - - - - S 32 37 17 20 - - -
21/12:00am - - - - - S 35 46 19 25 - - -
 
Date/Time
EST
Temp
°C
App
Temp
°C
Dew
Point
°C
Rel
Hum
%
Delta-T
°C
Wind Press
QNH
hPa
Press
MSL
hPa
Rain since
9am
mm
Dir  Spd
km/h
Gust
km/h
Spd
kts
Gust
kts
20/11:30pm - - - - - S 28 35 15 19 - - -
20/11:00pm - - - - - S 30 35 16 19 - - -
20/10:30pm - - - - - S 35 41 19 22 - - -
20/10:00pm - - - - - S 37 50 20 27 - - -
20/09:30pm - - - - - S 37 48 20 26 - - -
20/09:00pm - - - - - SSE 39 52 21 28 - - -
20/08:30pm - - - - - SSE 44 57 24 31 - - -
20/08:00pm - - - - - SSE 41 54 22 29 - - -
20/07:30pm - - - - - SSE 48 57 26 31 - - -
20/07:00pm - - - - - SSE 43 52 23 28 - - -
20/06:30pm - - - - - SSE 35 39 19 21 - - -
20/06:00pm - - - - - SE 30 35 16 19 - - -
20/05:30pm - - - - - SE 28 33 15 18 - - -
20/05:00pm - - - - - SE 20 26 11 14 - - -
20/04:30pm - - - - - SE 19 26 10 14 - - -
20/04:00pm - - - - - SSE 20 28 11 15 - - -
20/03:30pm - - - - - SE 19 22 10 12 - - -
20/03:00pm - - - - - SE 19 26 10 14 - - -
20/02:30pm - - - - - SE 19 22 10 12 - - -
20/02:00pm - - - - - SE 17 20 9 11 - - -
20/01:30pm - - - - - SE 19 22 10 12 - - -
20/01:00pm - - - - - SE 17 22 9 12 - - -
20/12:30pm - - - - - SE 26 32 14 17 - - -
20/12:00pm - - - - - SSE 26 28 14 15 - - -
20/11:30am - - - - - SE 19 24 10 13 - - -
20/11:00am - - - - - SSE 19 24 10 13 - - -
20/10:30am - - - - - SSE 19 24 10 13 - - -
20/10:00am - - - - - SSE 17 22 9 12 - - -
20/09:30am - - - - - SSE 17 22 9 12 - - -
20/09:00am - - - - - S 20 24 11 13 - - -
20/08:30am - - - - - S 20 28 11 15 - - -
20/08:00am - - - - - SSW 15 19 8 10 - - -
20/07:30am - - - - - SSW 15 20 8 11 - - -
20/07:00am - - - - - SSW 13 17 7 9 - - -
20/06:30am - - - - - SSW 13 17 7 9 - - -
20/06:00am - - - - - SSW 17 22 9 12 - - -
20/05:30am - - - - - SSW 13 15 7 8 - - -
20/05:00am - - - - - SSW 15 17 8 9 - - -
20/04:30am - - - - - S 13 17 7 9 - - -
20/04:00am - - - - - SSW 15 19 8 10 - - -
20/03:30am - - - - - SSW 13 17 7 9 - - -
20/03:00am - - - - - SSW 11 13 6 7 - - -
20/02:30am - - - - - SSW 11 11 6 6 - - -
20/02:00am - - - - - SSW 13 15 7 8 - - -
20/01:30am - - - - - SSW 15 17 8 9 - - -
20/01:00am - - - - - SSW 13 15 7 8 - - -
20/12:30am - - - - - SSW 15 17 8 9 - - -
20/12:00am - - - - - SSW 11 13 6 7 - - -
 
Date/Time
EST
Temp
°C
App
Temp
°C
Dew
Point
°C
Rel
Hum
%
Delta-T
°C
Wind Press
QNH
hPa
Press
MSL
hPa
Rain since
9am
mm
Dir  Spd
km/h
Gust
km/h
Spd
kts
Gust
kts
19/11:30pm - - - - - SSW 15 17 8 9 - - -
19/11:00pm - - - - - SSW 13 15 7 8 - - -
19/10:30pm - - - - - SE 15 19 8 10 - - -
19/10:00pm - - - - - ESE 15 19 8 10 - - -
19/09:30pm - - - - - ESE 15 17 8 9 - - -
19/09:00pm - - - - - ESE 15 17 8 9 - - -
19/08:30pm - - - - - ESE 15 17 8 9 - - -
19/08:00pm - - - - - SE 13 15 7 8 - - -
19/07:30pm - - - - - ESE 15 17 8 9 - - -
19/07:00pm - - - - - SE 13 17 7 9 - - -
19/06:30pm - - - - - SE 15 17 8 9 - - -
19/06:00pm - - - - - SE 13 15 7 8 - - -
19/05:30pm - - - - - SE 15 19 8 10 - - -
19/05:00pm - - - - - SE 17 22 9 12 - - -
19/04:30pm - - - - - SSE 24 28 13 15 - - -
19/04:00pm - - - - - SE 20 26 11 14 - - -
19/03:30pm - - - - - SE 17 24 9 13 - - -
19/03:00pm - - - - - SE 17 20 9 11 - - -
19/02:30pm - - - - - ESE 19 24 10 13 - - -
19/02:00pm - - - - - SE 15 20 8 11 - - -
19/01:30pm - - - - - SE 17 22 9 12 - - -
19/01:00pm - - - - - SE 15 19 8 10 - - -
19/12:30pm - - - - - SE 15 19 8 10 - - -
19/12:00pm - - - - - SE 13 19 7 10 - - -
19/11:30am - - - - - SSE 19 20 10 11 - - -
19/11:00am - - - - - SSE 15 20 8 11 - - -
19/10:30am - - - - - SSE 13 17 7 9 - - -
19/10:00am - - - - - S 13 17 7 9 - - -
19/09:30am - - - - - S 15 19 8 10 - - -
19/09:00am - - - - - S 15 19 8 10 - - -
19/08:30am - - - - - S 17 20 9 11 - - -
19/08:00am - - - - - S 15 19 8 10 - - -
19/07:30am - - - - - SSW 15 19 8 10 - - -
19/07:00am - - - - - SSW 11 17 6 9 - - -

Other formats

Comma delimited format used in spreadsheet applications
http://www.bom.gov.au/fwo/IDQ60801/IDQ60801.99367.axf

JavaScript Object Notation format (JSON) in row-major order
http://www.bom.gov.au/fwo/IDQ60801/IDQ60801.99367.json

Data quality

Most of these data are generated automatically and are frequently updated. Quality checks on data are not normally performed. It is possible for incorrect values to appear. Refer to information at About Latest Weather Observations and please check the disclaimer before using these data.